Terminal Aerodrome Forecast
Issued by NWS Cleveland, OH

Home | Current Version | Previous Version | Text Only | Print | Product List | Glossary On
Versions: 1 2 3 4 5 6 7 8 9 10 11 12
000
FTUS41 KCLE 052339
TAFERI
TAF
KERI 052339Z 0600/0624 VRB03KT P6SM SCT150 BKN200
     FM061200 18005KT P6SM SCT150 BKN200
     FM061500 33008KT P6SM BKN100 OVC200
     FM062100 03006KT P6SM VCSH BKN050 OVC100=

USA.gov is the U.S. government's official web portal to all federal, state and local government web resources and services.